Time;durP1;ratioP1;P1;durP2;ratioP2;P2;SDS_P1;SDS_P2;PMS_P1;PMS_P2;Temp;Humidity;BMP_temperature;BMP_pressure;BME280_temperature;BME280_humidity;BME280_pressure;Samples;Min_cycle;Max_cycle;Signal;HPM_P1;HPM_P2
2020/10/09 00:01:56;;;;;;;1.17;1.11;;;;;;;20.90;63.91;100747.33;;;;-52
2020/10/09 00:04:56;;;;;;;1.42;1.32;;;;;;;20.89;63.93;100750.16;;;;-49
2020/10/09 00:07:56;;;;;;;1.26;1.16;;;;;;;20.88;63.97;100754.48;;;;-49
2020/10/09 00:10:56;;;;;;;1.15;1.07;;;;;;;20.87;63.93;100746.73;;;;-49
2020/10/09 00:14:56;;;;;;;1.11;1.10;;;;;;;20.87;63.93;100740.30;;;;-49
2020/10/09 00:18:56;;;;;;;1.22;1.13;;;;;;;20.86;63.96;100739.25;;;;-49
2020/10/09 00:21:56;;;;;;;1.59;1.20;;;;;;;20.86;63.96;100742.34;;;;-50
2020/10/09 00:24:56;;;;;;;1.32;1.22;;;;;;;20.85;63.99;100741.67;;;;-50
2020/10/09 00:27:56;;;;;;;1.30;1.20;;;;;;;20.83;64.02;100745.65;;;;-49
2020/10/09 00:30:56;;;;;;;1.27;1.17;;;;;;;20.83;63.98;100746.70;;;;-49
2020/10/09 00:33:56;;;;;;;1.33;1.23;;;;;;;20.82;64.02;100738.98;;;;-49
2020/10/09 00:36:56;;;;;;;1.19;1.10;;;;;;;20.82;64.03;100740.38;;;;-49
2020/10/09 00:39:56;;;;;;;1.19;1.15;;;;;;;20.81;64.06;100737.33;;;;-49
2020/10/09 00:42:55;;;;;;;1.20;1.11;;;;;;;20.81;64.07;100739.53;;;;-49
2020/10/09 00:45:56;;;;;;;1.27;1.17;;;;;;;20.79;64.04;100735.14;;;;-49
2020/10/09 00:48:55;;;;;;;1.17;1.08;;;;;;;20.79;64.05;100729.98;;;;-49
2020/10/09 00:51:56;;;;;;;1.13;1.12;;;;;;;20.78;64.02;100732.52;;;;-49
2020/10/09 00:54:56;;;;;;;1.09;1.09;;;;;;;20.77;64.08;100733.42;;;;-49
2020/10/09 00:57:56;;;;;;;1.10;1.10;;;;;;;20.77;64.09;100733.48;;;;-49
2020/10/09 01:00:56;;;;;;;1.19;1.10;;;;;;;20.76;64.05;100735.36;;;;-49
2020/10/09 01:06:56;;;;;;;1.16;1.13;;;;;;;20.75;64.11;100734.39;;;;-49
2020/10/09 01:12:56;;;;;;;1.10;1.09;;;;;;;20.74;64.13;100740.80;;;;-49
2020/10/09 01:15:56;;;;;;;1.25;1.17;;;;;;;20.74;64.12;100740.41;;;;-50
2020/10/09 01:20:56;;;;;;;1.33;1.23;;;;;;;20.73;64.14;100743.15;;;;-49
2020/10/09 01:23:56;;;;;;;1.30;1.20;;;;;;;20.72;64.15;100740.14;;;;-49
2020/10/09 01:26:56;;;;;;;1.19;1.17;;;;;;;20.71;64.19;100740.61;;;;-49
2020/10/09 01:29:56;;;;;;;1.17;1.15;;;;;;;20.71;64.16;100743.70;;;;-49
2020/10/09 01:32:58;;;;;;;1.20;1.10;;;;;;;20.70;64.21;100735.16;;;;-49
2020/10/09 01:35:56;;;;;;;1.03;1.01;;;;;;;20.69;64.18;100734.77;;;;-49
2020/10/09 01:38:56;;;;;;;1.43;1.13;;;;;;;20.69;64.21;100731.59;;;;-49
2020/10/09 01:41:56;;;;;;;1.30;1.20;;;;;;;20.68;64.18;100737.59;;;;-49
2020/10/09 01:44:56;;;;;;;1.29;1.20;;;;;;;20.68;64.20;100737.19;;;;-49
2020/10/09 01:48:56;;;;;;;1.00;1.00;;;;;;;20.67;64.21;100735.32;;;;-49
2020/10/09 01:51:56;;;;;;;1.11;1.00;;;;;;;20.67;64.18;100737.17;;;;-49
2020/10/09 01:54:56;;;;;;;1.15;1.12;;;;;;;20.66;64.21;100735.05;;;;-49
2020/10/09 01:57:56;;;;;;;1.19;1.01;;;;;;;20.66;64.22;100738.56;;;;-49
2020/10/09 02:00:56;;;;;;;1.25;1.17;;;;;;;20.65;64.21;100743.77;;;;-49
2020/10/09 02:03:56;;;;;;;1.23;1.15;;;;;;;20.65;64.23;100745.30;;;;-58
2020/10/09 02:06:56;;;;;;;1.14;1.10;;;;;;;20.63;64.23;100746.53;;;;-58
2020/10/09 02:09:56;;;;;;;1.17;1.13;;;;;;;20.64;64.22;100748.72;;;;-59
2020/10/09 02:12:56;;;;;;;1.07;1.03;;;;;;;20.63;64.25;100743.44;;;;-60
2020/10/09 02:16:57;;;;;;;1.11;1.10;;;;;;;20.62;64.26;100738.62;;;;-59
2020/10/09 02:19:56;;;;;;;1.23;1.13;;;;;;;20.62;64.23;100737.56;;;;-59
2020/10/09 02:22:56;;;;;;;1.25;1.10;;;;;;;20.61;64.26;100740.49;;;;-58
2020/10/09 02:25:57;;;;;;;1.30;1.20;;;;;;;20.61;64.27;100740.55;;;;-59
2020/10/09 02:28:56;;;;;;;1.30;1.20;;;;;;;20.60;64.29;100741.62;;;;-59
2020/10/09 02:31:56;;;;;;;1.35;1.20;;;;;;;20.60;64.24;100741.05;;;;-59
2020/10/09 02:34:56;;;;;;;1.13;1.09;;;;;;;20.60;64.24;100739.34;;;;-58
2020/10/09 02:37:56;;;;;;;1.10;1.10;;;;;;;20.59;64.27;100740.32;;;;-59
2020/10/09 02:40:56;;;;;;;1.30;1.20;;;;;;;20.58;64.29;100740.87;;;;-60
2020/10/09 02:43:56;;;;;;;1.31;1.21;;;;;;;20.58;64.28;100732.89;;;;-60
2020/10/09 02:46:56;;;;;;;1.23;1.13;;;;;;;20.58;64.27;100730.98;;;;-58
2020/10/09 02:49:56;;;;;;;1.00;0.98;;;;;;;20.57;64.31;100729.37;;;;-58
2020/10/09 02:52:56;;;;;;;1.21;1.11;;;;;;;20.57;64.29;100728.39;;;;-58
2020/10/09 02:55:56;;;;;;;1.09;1.09;;;;;;;20.56;64.29;100730.56;;;;-59
2020/10/09 02:58:56;;;;;;;1.30;1.20;;;;;;;20.55;64.28;100726.82;;;;-58
2020/10/09 03:01:56;;;;;;;1.03;1.02;;;;;;;20.55;64.29;100731.87;;;;-59
2020/10/09 03:04:56;;;;;;;1.10;1.10;;;;;;;20.54;64.33;100730.91;;;;-60
2020/10/09 03:07:56;;;;;;;1.09;1.08;;;;;;;20.54;64.31;100728.78;;;;-59
2020/10/09 03:10:56;;;;;;;1.24;1.15;;;;;;;20.54;64.33;100729.50;;;;-58
2020/10/09 03:13:56;;;;;;;1.19;1.10;;;;;;;20.54;64.32;100726.08;;;;-59
2020/10/09 03:16:56;;;;;;;1.23;1.12;;;;;;;20.53;64.33;100725.59;;;;-59
2020/10/09 03:19:56;;;;;;;1.28;1.18;;;;;;;20.53;64.32;100723.72;;;;-59
2020/10/09 03:22:56;;;;;;;1.19;1.14;;;;;;;20.53;64.35;100725.43;;;;-58
2020/10/09 03:25:56;;;;;;;1.07;1.07;;;;;;;20.52;64.34;100723.45;;;;-59
2020/10/09 03:28:57;;;;;;;1.19;1.14;;;;;;;20.51;64.36;100723.38;;;;-59
2020/10/09 03:31:56;;;;;;;1.33;1.19;;;;;;;20.51;64.34;100725.42;;;;-58
2020/10/09 03:34:56;;;;;;;1.20;1.10;;;;;;;20.50;64.36;100723.22;;;;-59
2020/10/09 03:37:56;;;;;;;1.11;1.10;;;;;;;20.51;64.35;100723.79;;;;-58
2020/10/09 03:40:56;;;;;;;1.20;1.17;;;;;;;20.51;64.34;100721.91;;;;-59
2020/10/09 03:43:56;;;;;;;1.15;1.12;;;;;;;20.49;64.40;100720.59;;;;-58
2020/10/09 03:46:59;;;;;;;1.10;1.10;;;;;;;20.49;64.38;100718.73;;;;-59
2020/10/09 03:49:56;;;;;;;1.14;1.09;;;;;;;20.49;64.38;100711.48;;;;-58
2020/10/09 03:52:56;;;;;;;1.14;1.10;;;;;;;20.48;64.38;100712.84;;;;-58
2020/10/09 03:55:56;;;;;;;1.20;1.10;;;;;;;20.48;64.39;100717.89;;;;-59
2020/10/09 03:58:56;;;;;;;1.17;1.11;;;;;;;20.47;64.42;100718.22;;;;-58
2020/10/09 04:01:56;;;;;;;1.22;1.19;;;;;;;20.47;64.40;100718.30;;;;-59
2020/10/09 04:04:59;;;;;;;1.33;1.23;;;;;;;20.46;64.42;100718.23;;;;-59
2020/10/09 04:07:56;;;;;;;1.30;1.20;;;;;;;20.46;64.39;100717.17;;;;-58
2020/10/09 04:10:57;;;;;;;1.00;1.00;;;;;;;20.45;64.42;100721.63;;;;-58
2020/10/09 04:13:56;;;;;;;1.40;1.30;;;;;;;20.45;64.41;100726.76;;;;-59
2020/10/09 04:16:56;;;;;;;1.09;1.09;;;;;;;20.45;64.46;100729.77;;;;-58
2020/10/09 04:20:09;;;;;;;1.38;1.28;;;;;;;20.44;64.42;100726.11;;;;-59
2020/10/09 04:22:56;;;;;;;1.30;1.20;;;;;;;20.44;64.45;100723.51;;;;-59
2020/10/09 04:25:58;;;;;;;1.00;1.00;;;;;;;20.44;64.46;100729.51;;;;-58
2020/10/09 04:28:56;;;;;;;1.20;1.10;;;;;;;20.42;64.45;100727.64;;;;-58
2020/10/09 04:31:56;;;;;;;1.11;1.09;;;;;;;20.43;64.49;100726.58;;;;-58
2020/10/09 04:34:56;;;;;;;1.03;1.03;;;;;;;20.43;64.46;100729.19;;;;-59
2020/10/09 04:37:56;;;;;;;1.30;1.20;;;;;;;20.43;64.44;100725.28;;;;-58
2020/10/09 04:40:56;;;;;;;1.26;1.16;;;;;;;20.41;64.49;100725.34;;;;-59
2020/10/09 04:43:56;;;;;;;1.07;1.05;;;;;;;20.41;64.49;100726.33;;;;-58
2020/10/09 04:46:56;;;;;;;1.27;1.19;;;;;;;20.41;64.48;100726.97;;;;-58
2020/10/09 04:49:56;;;;;;;1.10;1.10;;;;;;;20.41;64.45;100727.70;;;;-58
2020/10/09 04:52:59;;;;;;;1.17;1.12;;;;;;;20.41;64.48;100722.41;;;;-59
2020/10/09 04:55:56;;;;;;;1.11;1.10;;;;;;;20.40;64.47;100722.99;;;;-59
2020/10/09 04:58:56;;;;;;;1.06;1.06;;;;;;;20.40;64.49;100725.27;;;;-59
2020/10/09 05:01:56;;;;;;;1.35;1.25;;;;;;;20.40;64.49;100725.65;;;;-58
2020/10/09 05:04:56;;;;;;;1.17;1.13;;;;;;;20.39;64.49;100727.61;;;;-58
2020/10/09 05:07:56;;;;;;;1.29;1.19;;;;;;;20.39;64.47;100722.56;;;;-58
2020/10/09 05:10:56;;;;;;;1.21;1.13;;;;;;;20.39;64.50;100723.62;;;;-58
2020/10/09 05:13:56;;;;;;;1.11;1.11;;;;;;;20.38;64.46;100723.71;;;;-58
2020/10/09 05:16:56;;;;;;;1.08;1.07;;;;;;;20.38;64.48;100721.34;;;;-58
2020/10/09 05:19:56;;;;;;;1.26;1.16;;;;;;;20.39;64.47;100719.71;;;;-58
2020/10/09 05:22:56;;;;;;;1.23;1.13;;;;;;;20.39;64.47;100724.52;;;;-58
2020/10/09 05:25:56;;;;;;;1.00;1.00;;;;;;;20.40;64.44;100721.20;;;;-58
2020/10/09 05:28:56;;;;;;;1.11;1.11;;;;;;;20.42;64.44;100718.13;;;;-58
2020/10/09 05:31:56;;;;;;;1.20;1.11;;;;;;;20.44;64.43;100714.80;;;;-58
2020/10/09 05:34:56;;;;;;;1.19;1.09;;;;;;;20.46;64.39;100712.75;;;;-59
2020/10/09 05:37:56;;;;;;;1.25;1.15;;;;;;;20.47;64.38;100717.90;;;;-58
2020/10/09 05:40:56;;;;;;;1.13;1.10;;;;;;;20.50;64.41;100716.84;;;;-58
2020/10/09 05:43:56;;;;;;;1.00;1.00;;;;;;;20.52;64.46;100722.59;;;;-58
2020/10/09 05:46:56;;;;;;;1.05;1.05;;;;;;;20.55;64.51;100723.41;;;;-59
2020/10/09 05:49:56;;;;;;;1.23;1.17;;;;;;;20.57;64.53;100723.17;;;;-59
2020/10/09 05:52:56;;;;;;;1.30;1.20;;;;;;;20.60;64.57;100727.69;;;;-59
2020/10/09 05:55:57;;;;;;;1.21;1.11;;;;;;;20.63;64.61;100731.95;;;;-59
2020/10/09 05:58:56;;;;;;;1.10;1.10;;;;;;;20.66;64.60;100733.67;;;;-59
2020/10/09 06:01:56;;;;;;;1.11;1.10;;;;;;;20.69;64.68;100736.04;;;;-60
2020/10/09 06:04:56;;;;;;;1.00;1.00;;;;;;;20.71;64.67;100742.59;;;;-59
2020/10/09 06:07:56;;;;;;;1.19;1.10;;;;;;;20.73;64.69;100741.95;;;;-60
2020/10/09 06:10:56;;;;;;;1.09;1.09;;;;;;;20.76;64.72;100749.29;;;;-60
2020/10/09 06:13:56;;;;;;;1.14;1.10;;;;;;;20.78;64.78;100751.34;;;;-59
2020/10/09 06:16:56;;;;;;;1.05;1.01;;;;;;;20.79;64.76;100747.91;;;;-59
2020/10/09 06:19:56;;;;;;;1.12;1.12;;;;;;;20.81;64.74;100747.52;;;;-60
2020/10/09 06:22:56;;;;;;;1.05;1.05;;;;;;;20.83;64.79;100751.52;;;;-59
2020/10/09 06:25:56;;;;;;;1.10;1.10;;;;;;;20.84;64.76;100749.83;;;;-59
2020/10/09 06:28:58;;;;;;;1.29;1.20;;;;;;;20.86;64.77;100748.70;;;;-60
2020/10/09 06:31:56;;;;;;;1.00;1.00;;;;;;;20.87;64.80;100751.95;;;;-49
2020/10/09 06:34:56;;;;;;;1.25;1.16;;;;;;;20.89;64.79;100753.83;;;;-52
2020/10/09 06:37:56;;;;;;;1.21;1.11;;;;;;;20.91;64.77;100755.80;;;;-52
2020/10/09 06:40:57;;;;;;;1.23;1.18;;;;;;;20.93;64.76;100762.90;;;;-52
2020/10/09 06:43:56;;;;;;;1.01;1.01;;;;;;;20.95;64.80;100763.97;;;;-52
2020/10/09 06:46:56;;;;;;;1.26;1.20;;;;;;;20.96;64.73;100766.43;;;;-52
2020/10/09 06:49:56;;;;;;;1.25;1.15;;;;;;;20.97;64.73;100762.75;;;;-52
2020/10/09 06:52:56;;;;;;;1.30;1.12;;;;;;;20.98;64.72;100765.63;;;;-52
2020/10/09 06:55:56;;;;;;;1.31;1.21;;;;;;;21.00;64.76;100766.53;;;;-51
2020/10/09 06:58:56;;;;;;;1.11;1.10;;;;;;;21.02;64.73;100771.81;;;;-53
2020/10/09 07:01:58;;;;;;;1.15;1.10;;;;;;;21.02;64.73;100778.20;;;;-52
2020/10/09 07:04:56;;;;;;;1.09;1.09;;;;;;;21.03;64.68;100772.32;;;;-51
2020/10/09 07:07:56;;;;;;;1.10;1.10;;;;;;;21.04;64.66;100776.47;;;;-52
2020/10/09 07:10:56;;;;;;;1.30;1.20;;;;;;;21.06;64.67;100778.44;;;;-53
2020/10/09 07:13:56;;;;;;;1.20;1.10;;;;;;;21.05;64.67;100772.98;;;;-52
2020/10/09 07:16:56;;;;;;;1.30;1.20;;;;;;;21.05;64.64;100773.39;;;;-52
2020/10/09 07:19:56;;;;;;;1.22;1.12;;;;;;;21.06;64.62;100773.38;;;;-52
2020/10/09 07:22:56;;;;;;;1.22;1.15;;;;;;;21.08;64.60;100774.05;;;;-52
2020/10/09 07:25:56;;;;;;;1.21;1.13;;;;;;;21.09;64.56;100777.73;;;;-52
2020/10/09 07:28:56;;;;;;;1.12;1.06;;;;;;;21.09;64.56;100780.91;;;;-52
2020/10/09 07:31:56;;;;;;;1.30;1.20;;;;;;;21.10;64.55;100778.13;;;;-52
2020/10/09 07:34:57;;;;;;;2.30;1.21;;;;;;;21.13;64.54;100777.27;;;;-57
2020/10/09 07:37:56;;;;;;;2.47;1.29;;;;;;;21.13;64.52;100774.66;;;;-57
2020/10/09 07:40:56;;;;;;;4.09;1.47;;;;;;;21.15;64.64;100774.42;;;;-58
2020/10/09 07:43:56;;;;;;;6.27;2.80;;;;;;;21.13;63.59;100773.69;;;;-58
2020/10/09 07:46:56;;;;;;;7.27;2.57;;;;;;;21.11;63.48;100771.14;;;;-57
2020/10/09 07:49:56;;;;;;;5.45;2.43;;;;;;;21.11;63.49;100766.98;;;;-57
2020/10/09 07:52:56;;;;;;;4.73;2.65;;;;;;;21.11;63.38;100767.39;;;;-58
2020/10/09 07:55:57;;;;;;;3.48;2.54;;;;;;;21.12;63.53;100769.67;;;;-54
2020/10/09 07:58:56;;;;;;;4.39;2.52;;;;;;;21.16;63.95;100768.70;;;;-57
2020/10/09 08:01:56;;;;;;;3.37;2.37;;;;;;;21.17;63.56;100760.73;;;;-58
2020/10/09 08:04:56;;;;;;;6.73;2.63;;;;;;;21.19;63.92;100764.41;;;;-58
2020/10/09 08:07:56;;;;;;;5.29;2.43;;;;;;;21.20;63.76;100761.05;;;;-58
2020/10/09 08:10:56;;;;;;;5.01;2.23;;;;;;;21.22;63.67;100763.20;;;;-58
2020/10/09 08:13:56;;;;;;;3.82;2.13;;;;;;;21.23;63.75;100764.27;;;;-58
2020/10/09 08:16:58;;;;;;;3.20;2.38;;;;;;;21.25;63.64;100765.15;;;;-58
2020/10/09 08:45:03;;;;;;;6.12;2.79;;;;;;;21.32;64.34;100758.34;;;;-57
2020/10/09 08:48:21;;;;;;;10.39;2.66;;;;;;;21.35;64.36;100757.85;;;;-57
2020/10/09 08:51:18;;;;;;;6.07;2.47;;;;;;;21.36;64.41;100754.94;;;;-57
2020/10/09 08:54:07;;;;;;;6.70;2.89;;;;;;;21.37;64.33;100756.88;;;;-62
2020/10/09 08:56:56;;;;;;;5.08;2.83;;;;;;;21.39;64.46;100756.64;;;;-57
2020/10/09 08:59:56;;;;;;;3.45;2.17;;;;;;;21.39;64.42;100756.09;;;;-60
2020/10/09 09:02:56;;;;;;;3.69;2.29;;;;;;;21.40;64.52;100760.89;;;;-61
2020/10/09 09:05:58;;;;;;;4.53;2.45;;;;;;;21.40;64.59;100756.58;;;;-60
2020/10/09 09:08:56;;;;;;;4.19;2.40;;;;;;;21.42;64.62;100760.20;;;;-55
2020/10/09 09:11:56;;;;;;;5.15;2.34;;;;;;;21.42;64.54;100762.98;;;;-61
2020/10/09 09:14:56;;;;;;;5.19;2.39;;;;;;;21.43;64.45;100761.33;;;;-62
2020/10/09 09:18:12;;;;;;;3.03;2.37;;;;;;;21.43;64.55;100761.42;;;;-52
2020/10/09 09:20:56;;;;;;;3.69;2.30;;;;;;;21.44;64.64;100761.92;;;;-57
2020/10/09 09:23:56;;;;;;;3.75;2.41;;;;;;;21.43;64.40;100758.80;;;;-59
2020/10/09 09:27:07;;;;;;;14.45;2.95;;;;;;;21.40;63.63;100757.31;;;;-54
2020/10/09 09:29:59;;;;;;;6.84;2.98;;;;;;;21.41;63.86;100757.70;;;;-61
2020/10/09 09:32:57;;;;;;;8.05;2.69;;;;;;;21.41;63.72;100763.33;;;;-61
2020/10/09 09:35:56;;;;;;;6.69;2.50;;;;;;;21.40;63.56;100763.02;;;;-58
2020/10/09 09:44:05;;;;;;;5.51;2.58;;;;;;;21.40;63.58;100755.02;;;;-53
2020/10/09 09:47:04;;;;;;;4.93;2.51;;;;;;;21.40;63.43;100753.89;;;;-62
2020/10/09 09:49:56;;;;;;;9.30;2.92;;;;;;;21.39;63.46;100753.55;;;;-58
2020/10/09 09:52:57;;;;;;;6.33;2.69;;;;;;;21.38;62.78;100757.62;;;;-54
2020/10/09 09:55:56;;;;;;;5.57;2.65;;;;;;;21.38;62.51;100755.59;;;;-58
2020/10/09 09:58:56;;;;;;;6.06;2.66;;;;;;;21.38;62.69;100755.34;;;;-56
2020/10/09 10:02:08;;;;;;;5.29;2.85;;;;;;;21.38;62.75;100756.33;;;;-56
2020/10/09 10:05:08;;;;;;;4.91;2.47;;;;;;;21.38;62.68;100753.63;;;;-54
2020/10/09 10:07:56;;;;;;;5.92;2.75;;;;;;;21.37;62.87;100754.95;;;;-55
2020/10/09 10:10:58;;;;;;;6.49;2.73;;;;;;;21.38;63.06;100751.19;;;;-59
2020/10/09 10:14:03;;;;;;;4.97;2.66;;;;;;;21.38;63.32;100746.05;;;;-62
2020/10/09 10:16:56;;;;;;;7.53;2.84;;;;;;;21.39;63.35;100747.67;;;;-59
2020/10/09 10:19:56;;;;;;;6.41;2.67;;;;;;;21.40;63.49;100751.45;;;;-61
2020/10/09 10:22:56;;;;;;;7.31;2.62;;;;;;;21.40;63.50;100748.42;;;;-60
2020/10/09 10:25:59;;;;;;;6.32;2.65;;;;;;;21.40;63.55;100747.36;;;;-59
2020/10/09 10:28:56;;;;;;;3.78;2.62;;;;;;;21.40;63.50;100741.08;;;;-58
2020/10/09 10:31:56;;;;;;;5.25;2.65;;;;;;;21.41;63.54;100729.66;;;;-59
2020/10/09 10:34:56;;;;;;;4.81;2.49;;;;;;;21.41;63.62;100734.95;;;;-55
2020/10/09 10:38:27;;;;;;;4.05;2.59;;;;;;;21.41;63.63;100738.22;;;;-58
2020/10/09 10:41:05;;;;;;;4.91;2.47;;;;;;;21.41;63.65;100734.06;;;;-54
2020/10/09 10:44:59;;;;;;;4.87;2.55;;;;;;;21.42;63.68;100727.23;;;;-55
2020/10/09 10:50:26;;;;;;;3.40;2.43;;;;;;;21.42;63.76;100731.06;;;;-56
2020/10/09 10:58:58;;;;;;;3.51;2.33;;;;;;;21.38;63.59;100727.54;;;;-57
2020/10/09 11:02:12;;;;;;;4.03;2.51;;;;;;;21.38;63.59;100734.39;;;;-58
2020/10/09 11:05:07;;;;;;;6.05;2.60;;;;;;;21.38;63.54;100735.61;;;;-56
2020/10/09 11:07:59;;;;;;;4.28;2.49;;;;;;;21.38;63.55;100732.52;;;;-56
2020/10/09 11:11:33;;;;;;;3.52;2.31;;;;;;;21.37;63.51;100724.43;;;;-56
2020/10/09 11:15:25;;;;;;;4.49;2.44;;;;;;;21.36;63.50;100717.84;;;;-56
2020/10/09 11:19:00;;;;;;;2.87;2.33;;;;;;;21.35;63.45;100716.69;;;;-56
2020/10/09 11:21:58;;;;;;;2.95;2.43;;;;;;;21.34;63.47;100715.14;;;;-56
2020/10/09 11:24:56;;;;;;;2.72;2.17;;;;;;;21.33;63.47;100712.05;;;;-56
2020/10/09 11:27:56;;;;;;;3.92;2.40;;;;;;;21.32;63.44;100709.52;;;;-56
2020/10/09 11:30:58;;;;;;;3.69;2.51;;;;;;;21.32;63.46;100710.57;;;;-57
2020/10/09 11:33:57;;;;;;;4.45;2.39;;;;;;;21.31;63.45;100706.39;;;;-56
2020/10/09 11:36:57;;;;;;;3.60;2.05;;;;;;;21.31;63.41;100705.66;;;;-46
2020/10/09 11:40:14;;;;;;;3.28;2.15;;;;;;;21.30;63.38;100705.59;;;;-51
2020/10/09 11:44:56;;;;;;;2.48;2.17;;;;;;;21.28;63.41;100702.97;;;;-50
2020/10/09 11:47:57;;;;;;;2.82;2.37;;;;;;;21.29;63.43;100709.08;;;;-51
2020/10/09 11:50:56;;;;;;;3.50;2.13;;;;;;;21.27;63.42;100700.76;;;;-51
2020/10/09 11:53:59;;;;;;;2.31;2.08;;;;;;;21.26;63.43;100700.11;;;;-51
2020/10/09 11:56:56;;;;;;;2.83;2.27;;;;;;;21.26;63.41;100695.47;;;;-50
2020/10/09 11:59:57;;;;;;;3.05;2.22;;;;;;;21.26;63.41;100694.41;;;;-52
2020/10/09 12:02:56;;;;;;;2.47;2.16;;;;;;;21.26;63.40;100688.05;;;;-51
2020/10/09 12:06:01;;;;;;;3.14;2.30;;;;;;;21.24;63.44;100688.37;;;;-50
2020/10/09 12:09:01;;;;;;;2.58;2.07;;;;;;;21.24;63.41;100680.39;;;;-52
2020/10/09 12:11:56;;;;;;;2.39;2.11;;;;;;;21.24;63.37;100677.95;;;;-51
2020/10/09 12:14:56;;;;;;;2.53;2.08;;;;;;;21.22;63.44;100680.05;;;;-50
2020/10/09 12:17:56;;;;;;;2.67;2.24;;;;;;;21.23;63.41;100677.02;;;;-51
2020/10/09 12:20:59;;;;;;;2.77;2.08;;;;;;;21.22;63.41;100666.60;;;;-51
2020/10/09 12:23:56;;;;;;;2.89;1.92;;;;;;;21.22;63.37;100662.37;;;;-58
2020/10/09 12:27:42;;;;;;;2.86;2.13;;;;;;;21.20;63.40;100665.04;;;;-56
2020/10/09 12:31:56;;;;;;;3.15;2.10;;;;;;;21.19;63.38;100657.39;;;;-46
2020/10/09 12:34:57;;;;;;;2.95;2.25;;;;;;;21.19;63.45;100661.95;;;;-50
2020/10/09 12:37:58;;;;;;;2.81;2.16;;;;;;;21.19;63.42;100658.70;;;;-49
2020/10/09 12:40:56;;;;;;;2.98;2.11;;;;;;;21.19;63.40;100652.84;;;;-50
2020/10/09 12:43:56;;;;;;;7.91;2.39;;;;;;;21.17;63.69;100652.42;;;;-48
2020/10/09 12:47:56;;;;;;;2.61;2.16;;;;;;;21.17;63.36;100656.73;;;;-60
2020/10/09 12:50:59;;;;;;;2.62;2.10;;;;;;;21.17;63.25;100657.87;;;;-52
2020/10/09 12:53:59;;;;;;;2.69;2.10;;;;;;;21.18;63.43;100658.52;;;;-45
2020/10/09 12:59:56;;;;;;;5.60;2.36;;;;;;;21.22;63.36;100654.63;;;;-50
2020/10/09 13:10:12;;;;;;;8.83;2.32;;;;;;;21.23;63.53;100654.29;;;;-56
2020/10/09 13:13:12;;;;;;;7.94;2.55;;;;;;;21.21;63.93;100652.59;;;;-53
2020/10/09 13:22:44;;;;;;;9.91;2.57;;;;;;;21.27;63.86;100645.19;;;;-51
2020/10/09 13:26:25;;;;;;;7.75;2.58;;;;;;;21.29;63.78;100644.70;;;;-54
2020/10/09 13:28:44;;;;;;;6.56;2.40;;;;;;;21.30;63.75;100646.00;;;;-56
2020/10/09 13:31:44;;;;;;;5.26;2.45;;;;;;;21.29;63.83;100642.99;;;;-50
2020/10/09 13:34:44;;;;;;;9.86;2.53;;;;;;;21.30;63.81;100646.98;;;;-51
2020/10/09 13:37:44;;;;;;;8.57;2.56;;;;;;;21.30;63.80;100646.48;;;;-51
2020/10/09 13:40:44;;;;;;;7.25;2.41;;;;;;;21.30;63.85;100645.42;;;;-51
2020/10/09 13:43:44;;;;;;;6.30;2.37;;;;;;;21.30;63.87;100645.35;;;;-52
2020/10/09 13:46:44;;;;;;;7.09;2.44;;;;;;;21.30;63.87;100646.98;;;;-51
2020/10/09 13:49:46;;;;;;;6.56;2.37;;;;;;;21.29;63.98;100644.05;;;;-53
2020/10/09 13:52:44;;;;;;;5.93;2.35;;;;;;;21.30;63.99;100644.62;;;;-50
2020/10/09 13:55:45;;;;;;;2.96;2.02;;;;;;;21.29;64.06;100641.36;;;;-47
2020/10/09 13:58:45;;;;;;;6.81;2.19;;;;;;;21.29;63.96;100639.33;;;;-50
2020/10/09 14:01:58;;;;;;;7.11;2.43;;;;;;;21.28;64.00;100637.27;;;;-43
2020/10/09 14:04:44;;;;;;;3.51;2.27;;;;;;;21.29;64.06;100634.00;;;;-45
2020/10/09 14:07:44;;;;;;;9.25;2.41;;;;;;;21.29;64.04;100624.89;;;;-46
2020/10/09 14:10:47;;;;;;;5.03;2.29;;;;;;;21.31;64.06;100620.14;;;;-55
2020/10/09 14:13:56;;;;;;;4.99;2.27;;;;;;;21.32;64.11;100615.67;;;;-55
2020/10/09 14:16:44;;;;;;;6.16;2.30;;;;;;;21.34;64.16;100613.31;;;;-51
2020/10/09 14:19:44;;;;;;;9.27;2.31;;;;;;;21.37;64.19;100613.39;;;;-53
2020/10/09 14:22:44;;;;;;;4.11;2.40;;;;;;;21.40;64.19;100616.75;;;;-52
2020/10/09 14:25:44;;;;;;;4.86;2.14;;;;;;;21.43;64.17;100616.86;;;;-51
2020/10/09 14:28:44;;;;;;;3.19;2.21;;;;;;;21.45;64.18;100619.06;;;;-50
2020/10/09 14:31:44;;;;;;;4.81;2.33;;;;;;;21.48;64.18;100615.73;;;;-49
2020/10/09 14:34:44;;;;;;;4.05;2.15;;;;;;;21.51;64.07;100619.72;;;;-58
2020/10/09 14:37:44;;;;;;;4.32;2.20;;;;;;;21.53;64.38;100621.34;;;;-51
2020/10/09 14:40:44;;;;;;;3.57;2.19;;;;;;;21.56;64.34;100620.71;;;;-63
2020/10/09 14:43:44;;;;;;;3.79;2.17;;;;;;;21.59;64.27;100624.20;;;;-56
2020/10/09 14:46:44;;;;;;;3.04;2.16;;;;;;;21.61;64.49;100624.61;;;;-54
2020/10/09 14:49:44;;;;;;;4.16;2.25;;;;;;;21.65;64.48;100625.52;;;;-58
2020/10/09 14:52:44;;;;;;;3.33;2.13;;;;;;;21.67;64.54;100625.10;;;;-59
2020/10/09 14:55:44;;;;;;;4.29;2.08;;;;;;;21.70;64.68;100627.30;;;;-59
2020/10/09 14:58:44;;;;;;;4.09;2.10;;;;;;;21.72;64.60;100624.93;;;;-60
2020/10/09 15:01:44;;;;;;;3.67;2.05;;;;;;;21.73;64.41;100620.37;;;;-58
2020/10/09 15:04:44;;;;;;;3.45;1.90;;;;;;;21.73;64.10;100612.30;;;;-58
2020/10/09 15:07:44;;;;;;;4.51;2.19;;;;;;;21.74;63.97;100609.11;;;;-59
2020/10/09 15:10:44;;;;;;;7.07;1.98;;;;;;;21.74;63.88;100610.01;;;;-59
2020/10/09 15:13:44;;;;;;;3.46;2.00;;;;;;;21.74;63.87;100610.26;;;;-59
2020/10/09 15:16:44;;;;;;;4.01;1.96;;;;;;;21.73;63.64;100605.45;;;;-58
2020/10/09 15:19:44;;;;;;;2.83;1.89;;;;;;;21.73;63.75;100603.72;;;;-58
2020/10/09 15:22:44;;;;;;;4.40;2.09;;;;;;;21.74;63.70;100604.88;;;;-59
2020/10/09 15:25:44;;;;;;;6.70;2.18;;;;;;;21.73;64.02;100603.06;;;;-51
2020/10/09 15:28:44;;;;;;;4.94;1.99;;;;;;;21.74;64.09;100605.44;;;;-51
2020/10/09 15:36:05;;;;;;;4.20;2.09;;;;;;;21.76;63.99;100608.12;;;;-58
2020/10/09 15:39:05;;;;;;;3.38;2.09;;;;;;;21.76;64.07;100608.86;;;;-58
2020/10/09 15:42:03;;;;;;;3.66;2.01;;;;;;;21.77;64.01;100605.51;;;;-55
2020/10/09 15:45:04;;;;;;;4.22;2.07;;;;;;;21.76;64.06;100601.27;;;;-54
2020/10/09 15:48:04;;;;;;;2.87;1.96;;;;;;;21.77;63.95;100594.59;;;;-57
2020/10/09 15:51:03;;;;;;;2.65;2.10;;;;;;;21.77;64.03;100590.11;;;;-57
2020/10/09 15:54:03;;;;;;;3.47;2.03;;;;;;;21.78;64.04;100592.21;;;;-55
2020/10/09 15:57:03;;;;;;;3.28;1.95;;;;;;;21.77;64.04;100596.31;;;;-55
2020/10/09 16:00:04;;;;;;;2.25;2.01;;;;;;;21.78;64.02;100596.94;;;;-60
2020/10/09 16:03:03;;;;;;;3.52;2.13;;;;;;;21.79;64.05;100602.19;;;;-57
2020/10/09 16:06:03;;;;;;;3.31;1.99;;;;;;;21.79;64.06;100601.69;;;;-58
2020/10/09 16:09:08;;;;;;;2.51;2.01;;;;;;;21.79;64.02;100596.05;;;;-59
2020/10/09 16:12:03;;;;;;;2.82;2.00;;;;;;;21.79;63.97;100602.27;;;;-57
2020/10/09 16:15:03;;;;;;;2.47;2.02;;;;;;;21.79;63.98;100601.12;;;;-55
2020/10/09 16:18:03;;;;;;;2.86;2.03;;;;;;;21.79;64.01;100599.14;;;;-56
2020/10/09 16:21:03;;;;;;;2.62;1.93;;;;;;;21.79;64.02;100606.92;;;;-59
2020/10/09 16:24:03;;;;;;;8.67;2.13;;;;;;;21.80;64.27;100608.20;;;;-60
2020/10/09 16:27:03;;;;;;;9.39;2.39;;;;;;;21.80;64.30;100606.98;;;;-62
2020/10/09 16:30:04;;;;;;;7.23;2.26;;;;;;;21.80;64.02;100609.27;;;;-63
2020/10/09 16:33:04;;;;;;;8.16;2.33;;;;;;;21.78;64.10;100604.94;;;;-53
2020/10/09 16:36:04;;;;;;;7.09;2.33;;;;;;;21.77;64.07;100601.69;;;;-58
2020/10/09 16:39:03;;;;;;;6.51;2.32;;;;;;;21.78;64.02;100602.73;;;;-58
2020/10/09 16:42:03;;;;;;;7.45;2.26;;;;;;;21.77;63.89;100608.77;;;;-59
2020/10/09 16:45:03;;;;;;;8.42;2.57;;;;;;;21.76;63.85;100614.41;;;;-61
2020/10/09 16:51:03;;;;;;;5.55;2.21;;;;;;;21.74;63.79;100621.84;;;;-60
2020/10/09 16:54:04;;;;;;;3.59;1.93;;;;;;;21.73;63.75;100622.26;;;;-59
2020/10/09 16:57:06;;;;;;;5.07;2.07;;;;;;;21.72;63.74;100618.00;;;;-60
2020/10/09 17:00:03;;;;;;;5.64;2.12;;;;;;;21.71;63.72;100621.52;;;;-59
2020/10/09 17:04:03;;;;;;;4.53;2.33;;;;;;;21.69;63.75;100622.00;;;;-49
2020/10/09 17:07:03;;;;;;;4.73;1.98;;;;;;;21.68;63.70;100624.03;;;;-49
2020/10/09 17:10:04;;;;;;;4.21;2.20;;;;;;;21.68;63.68;100629.25;;;;-49
2020/10/09 17:13:03;;;;;;;3.55;1.94;;;;;;;21.67;63.65;100632.21;;;;-49
2020/10/09 17:16:04;;;;;;;3.85;2.15;;;;;;;21.66;63.70;100639.86;;;;-49
2020/10/09 17:19:03;;;;;;;3.06;1.92;;;;;;;21.66;63.66;100641.98;;;;-48
2020/10/09 17:22:04;;;;;;;3.97;1.93;;;;;;;21.65;63.69;100647.53;;;;-49
2020/10/09 17:25:03;;;;;;;2.25;1.89;;;;;;;21.65;63.67;100655.86;;;;-49
2020/10/09 17:28:03;;;;;;;4.18;2.23;;;;;;;21.63;63.71;100656.91;;;;-49
2020/10/09 17:31:03;;;;;;;3.27;2.06;;;;;;;21.63;63.69;100656.18;;;;-49
2020/10/09 17:34:05;;;;;;;4.13;2.09;;;;;;;21.62;63.69;100653.17;;;;-49
2020/10/09 17:37:03;;;;;;;4.41;2.09;;;;;;;21.61;63.66;100651.85;;;;-49
2020/10/09 17:40:04;;;;;;;4.47;2.03;;;;;;;21.60;63.66;100650.56;;;;-49
2020/10/09 17:43:03;;;;;;;3.05;1.85;;;;;;;21.60;63.68;100653.83;;;;-49
2020/10/09 17:46:03;;;;;;;3.03;2.03;;;;;;;21.61;63.68;100660.27;;;;-49
2020/10/09 17:49:03;;;;;;;4.07;2.00;;;;;;;21.59;63.67;100662.53;;;;-49
2020/10/09 17:52:05;;;;;;;2.68;1.77;;;;;;;21.58;63.67;100664.66;;;;-49
2020/10/09 17:55:03;;;;;;;3.44;2.03;;;;;;;21.59;63.65;100668.98;;;;-49
2020/10/09 17:58:03;;;;;;;4.95;2.21;;;;;;;21.58;63.65;100672.58;;;;-49
2020/10/09 18:01:06;;;;;;;3.41;2.09;;;;;;;21.57;63.67;100666.45;;;;-49
2020/10/09 18:06:03;;;;;;;2.67;2.03;;;;;;;21.56;63.63;100662.05;;;;-49
2020/10/09 18:09:04;;;;;;;3.13;1.98;;;;;;;21.56;63.67;100661.89;;;;-49